sensor_id;sensor_type;location;lat;lon;timestamp;P1;durP1;ratioP1;P2;durP2;ratioP2
38332;SDS011;25748;46.670;14.272;2023-03-14T00:00:46;4.88;;;1.10;;
38332;SDS011;25748;46.670;14.272;2023-03-14T00:03:11;2.47;;;1.00;;
38332;SDS011;25748;46.670;14.272;2023-03-14T00:05:37;3.30;;;1.17;;
38332;SDS011;25748;46.670;14.272;2023-03-14T00:08:03;3.72;;;1.05;;
38332;SDS011;25748;46.670;14.272;2023-03-14T00:10:29;3.25;;;0.90;;
38332;SDS011;25748;46.670;14.272;2023-03-14T00:12:55;5.43;;;1.10;;
38332;SDS011;25748;46.670;14.272;2023-03-14T00:15:20;6.38;;;0.98;;
38332;SDS011;25748;46.670;14.272;2023-03-14T00:17:46;1.75;;;0.80;;
38332;SDS011;25748;46.670;14.272;2023-03-14T00:20:12;2.85;;;0.80;;
38332;SDS011;25748;46.670;14.272;2023-03-14T00:22:38;1.95;;;0.75;;
38332;SDS011;25748;46.670;14.272;2023-03-14T00:25:05;0.90;;;0.57;;
38332;SDS011;25748;46.670;14.272;2023-03-14T00:27:32;2.92;;;0.85;;
38332;SDS011;25748;46.670;14.272;2023-03-14T00:29:58;2.58;;;0.50;;
38332;SDS011;25748;46.670;14.272;2023-03-14T00:32:24;3.30;;;0.88;;
38332;SDS011;25748;46.670;14.272;2023-03-14T00:34:50;2.70;;;0.50;;
38332;SDS011;25748;46.670;14.272;2023-03-14T00:37:16;0.70;;;0.60;;
38332;SDS011;25748;46.670;14.272;2023-03-14T00:39:42;2.08;;;0.75;;
38332;SDS011;25748;46.670;14.272;2023-03-14T00:42:08;1.42;;;0.60;;
38332;SDS011;25748;46.670;14.272;2023-03-14T00:44:33;1.35;;;0.50;;
38332;SDS011;25748;46.670;14.272;2023-03-14T00:47:00;3.72;;;0.65;;
38332;SDS011;25748;46.670;14.272;2023-03-14T00:49:28;3.13;;;0.50;;
38332;SDS011;25748;46.670;14.272;2023-03-14T00:51:53;2.53;;;0.65;;
38332;SDS011;25748;46.670;14.272;2023-03-14T00:54:19;1.75;;;0.70;;
38332;SDS011;25748;46.670;14.272;2023-03-14T00:56:46;4.32;;;0.82;;
38332;SDS011;25748;46.670;14.272;2023-03-14T00:59:12;4.75;;;0.90;;
38332;SDS011;25748;46.670;14.272;2023-03-14T01:01:38;2.53;;;0.88;;
38332;SDS011;25748;46.670;14.272;2023-03-14T01:04:05;4.97;;;0.68;;
38332;SDS011;25748;46.670;14.272;2023-03-14T01:06:31;1.02;;;0.60;;
38332;SDS011;25748;46.670;14.272;2023-03-14T01:08:57;1.80;;;0.60;;
38332;SDS011;25748;46.670;14.272;2023-03-14T01:11:28;2.83;;;0.55;;
38332;SDS011;25748;46.670;14.272;2023-03-14T01:13:55;1.17;;;0.40;;
38332;SDS011;25748;46.670;14.272;2023-03-14T01:16:22;1.35;;;0.40;;
38332;SDS011;25748;46.670;14.272;2023-03-14T01:18:50;0.95;;;0.45;;
38332;SDS011;25748;46.670;14.272;2023-03-14T01:23:47;1.50;;;0.93;;
38332;SDS011;25748;46.670;14.272;2023-03-14T01:26:15;4.15;;;0.73;;
38332;SDS011;25748;46.670;14.272;2023-03-14T01:31:13;1.00;;;0.30;;
38332;SDS011;25748;46.670;14.272;2023-03-14T01:33:40;2.00;;;0.80;;
38332;SDS011;25748;46.670;14.272;2023-03-14T01:36:06;0.93;;;0.45;;
38332;SDS011;25748;46.670;14.272;2023-03-14T01:38:33;1.95;;;0.60;;
38332;SDS011;25748;46.670;14.272;2023-03-14T01:41:01;0.80;;;0.50;;
38332;SDS011;25748;46.670;14.272;2023-03-14T01:43:28;4.85;;;0.70;;
38332;SDS011;25748;46.670;14.272;2023-03-14T01:48:27;3.17;;;0.60;;
38332;SDS011;25748;46.670;14.272;2023-03-14T01:50:57;1.95;;;0.65;;
38332;SDS011;25748;46.670;14.272;2023-03-14T01:53:24;1.33;;;0.60;;
38332;SDS011;25748;46.670;14.272;2023-03-14T01:55:50;1.15;;;0.55;;
38332;SDS011;25748;46.670;14.272;2023-03-14T01:58:18;1.88;;;0.90;;
38332;SDS011;25748;46.670;14.272;2023-03-14T02:00:45;1.92;;;0.70;;
38332;SDS011;25748;46.670;14.272;2023-03-14T02:03:13;4.45;;;0.80;;
38332;SDS011;25748;46.670;14.272;2023-03-14T02:05:42;5.20;;;1.17;;
38332;SDS011;25748;46.670;14.272;2023-03-14T02:08:13;4.72;;;1.17;;
38332;SDS011;25748;46.670;14.272;2023-03-14T02:10:43;3.15;;;0.75;;
38332;SDS011;25748;46.670;14.272;2023-03-14T02:13:12;2.88;;;0.70;;
38332;SDS011;25748;46.670;14.272;2023-03-14T02:15:40;1.13;;;0.65;;
38332;SDS011;25748;46.670;14.272;2023-03-14T02:18:07;2.88;;;1.05;;
38332;SDS011;25748;46.670;14.272;2023-03-14T02:20:34;2.08;;;0.75;;
38332;SDS011;25748;46.670;14.272;2023-03-14T02:23:06;2.10;;;0.85;;
38332;SDS011;25748;46.670;14.272;2023-03-14T02:25:40;2.47;;;0.70;;
38332;SDS011;25748;46.670;14.272;2023-03-14T02:28:08;3.65;;;1.00;;
38332;SDS011;25748;46.670;14.272;2023-03-14T02:30:39;3.15;;;0.93;;
38332;SDS011;25748;46.670;14.272;2023-03-14T02:33:15;8.75;;;1.27;;
38332;SDS011;25748;46.670;14.272;2023-03-14T02:35:47;4.82;;;1.65;;
38332;SDS011;25748;46.670;14.272;2023-03-14T02:41:11;2.67;;;1.10;;
38332;SDS011;25748;46.670;14.272;2023-03-14T02:43:37;11.70;;;1.75;;
38332;SDS011;25748;46.670;14.272;2023-03-14T02:46:03;7.57;;;1.38;;
38332;SDS011;25748;46.670;14.272;2023-03-14T02:48:35;6.40;;;1.40;;
38332;SDS011;25748;46.670;14.272;2023-03-14T02:51:08;4.32;;;1.00;;
38332;SDS011;25748;46.670;14.272;2023-03-14T02:53:35;2.85;;;1.15;;
38332;SDS011;25748;46.670;14.272;2023-03-14T02:56:03;2.55;;;1.00;;
38332;SDS011;25748;46.670;14.272;2023-03-14T02:58:30;3.25;;;0.70;;
38332;SDS011;25748;46.670;14.272;2023-03-14T03:00:56;7.88;;;1.10;;
38332;SDS011;25748;46.670;14.272;2023-03-14T03:03:22;2.83;;;1.40;;
38332;SDS011;25748;46.670;14.272;2023-03-14T03:05:50;9.40;;;1.50;;
38332;SDS011;25748;46.670;14.272;2023-03-14T03:08:21;4.20;;;1.42;;
38332;SDS011;25748;46.670;14.272;2023-03-14T03:10:48;7.97;;;1.73;;
38332;SDS011;25748;46.670;14.272;2023-03-14T03:13:15;4.50;;;1.40;;
38332;SDS011;25748;46.670;14.272;2023-03-14T03:15:41;3.40;;;1.65;;
38332;SDS011;25748;46.670;14.272;2023-03-14T03:18:07;5.47;;;1.60;;
38332;SDS011;25748;46.670;14.272;2023-03-14T03:20:36;3.33;;;1.70;;
38332;SDS011;25748;46.670;14.272;2023-03-14T03:23:03;8.05;;;2.22;;
38332;SDS011;25748;46.670;14.272;2023-03-14T03:25:29;4.68;;;2.00;;
38332;SDS011;25748;46.670;14.272;2023-03-14T03:27:56;5.43;;;2.05;;
38332;SDS011;25748;46.670;14.272;2023-03-14T03:30:22;6.60;;;2.10;;
38332;SDS011;25748;46.670;14.272;2023-03-14T03:32:48;3.20;;;1.45;;
38332;SDS011;25748;46.670;14.272;2023-03-14T03:35:15;3.25;;;1.30;;
38332;SDS011;25748;46.670;14.272;2023-03-14T03:37:41;8.50;;;1.95;;
38332;SDS011;25748;46.670;14.272;2023-03-14T03:40:07;3.70;;;1.42;;
38332;SDS011;25748;46.670;14.272;2023-03-14T03:42:34;5.05;;;1.65;;
38332;SDS011;25748;46.670;14.272;2023-03-14T03:45:00;3.35;;;1.50;;
38332;SDS011;25748;46.670;14.272;2023-03-14T03:47:26;4.18;;;1.58;;
38332;SDS011;25748;46.670;14.272;2023-03-14T03:49:52;4.90;;;1.75;;
38332;SDS011;25748;46.670;14.272;2023-03-14T03:52:18;4.03;;;1.40;;
38332;SDS011;25748;46.670;14.272;2023-03-14T03:54:45;4.82;;;1.75;;
38332;SDS011;25748;46.670;14.272;2023-03-14T03:57:11;7.05;;;1.80;;
38332;SDS011;25748;46.670;14.272;2023-03-14T03:59:37;4.18;;;1.33;;
38332;SDS011;25748;46.670;14.272;2023-03-14T04:02:05;4.95;;;1.63;;
38332;SDS011;25748;46.670;14.272;2023-03-14T04:04:30;3.95;;;1.42;;
38332;SDS011;25748;46.670;14.272;2023-03-14T04:06:56;8.43;;;2.00;;
38332;SDS011;25748;46.670;14.272;2023-03-14T04:09:22;15.25;;;6.20;;
38332;SDS011;25748;46.670;14.272;2023-03-14T04:11:48;10.77;;;2.88;;
38332;SDS011;25748;46.670;14.272;2023-03-14T04:14:13;4.75;;;2.15;;
38332;SDS011;25748;46.670;14.272;2023-03-14T04:16:40;5.60;;;1.98;;
38332;SDS011;25748;46.670;14.272;2023-03-14T04:19:05;5.57;;;2.42;;
38332;SDS011;25748;46.670;14.272;2023-03-14T04:21:31;10.60;;;2.97;;
38332;SDS011;25748;46.670;14.272;2023-03-14T04:23:57;7.50;;;2.40;;
38332;SDS011;25748;46.670;14.272;2023-03-14T04:26:22;5.50;;;2.17;;
38332;SDS011;25748;46.670;14.272;2023-03-14T04:28:48;4.50;;;2.35;;
38332;SDS011;25748;46.670;14.272;2023-03-14T04:31:18;3.72;;;1.75;;
38332;SDS011;25748;46.670;14.272;2023-03-14T04:33:46;6.47;;;2.40;;
38332;SDS011;25748;46.670;14.272;2023-03-14T04:36:12;9.45;;;1.65;;
38332;SDS011;25748;46.670;14.272;2023-03-14T04:38:39;5.15;;;1.75;;
38332;SDS011;25748;46.670;14.272;2023-03-14T04:41:05;8.07;;;2.35;;
38332;SDS011;25748;46.670;14.272;2023-03-14T04:43:31;7.60;;;2.05;;
38332;SDS011;25748;46.670;14.272;2023-03-14T04:45:57;6.63;;;2.00;;
38332;SDS011;25748;46.670;14.272;2023-03-14T04:48:28;6.80;;;1.70;;
38332;SDS011;25748;46.670;14.272;2023-03-14T04:50:57;12.02;;;3.33;;
38332;SDS011;25748;46.670;14.272;2023-03-14T04:53:22;10.25;;;2.50;;
38332;SDS011;25748;46.670;14.272;2023-03-14T04:55:52;5.88;;;2.28;;
38332;SDS011;25748;46.670;14.272;2023-03-14T04:58:22;10.07;;;2.17;;
38332;SDS011;25748;46.670;14.272;2023-03-14T05:00:48;7.85;;;2.17;;
38332;SDS011;25748;46.670;14.272;2023-03-14T05:03:15;5.35;;;1.92;;
38332;SDS011;25748;46.670;14.272;2023-03-14T05:05:41;5.13;;;2.20;;
38332;SDS011;25748;46.670;14.272;2023-03-14T05:08:07;5.25;;;2.00;;
38332;SDS011;25748;46.670;14.272;2023-03-14T05:10:33;5.72;;;2.47;;
38332;SDS011;25748;46.670;14.272;2023-03-14T05:12:59;7.00;;;2.70;;
38332;SDS011;25748;46.670;14.272;2023-03-14T05:15:24;5.72;;;2.05;;
38332;SDS011;25748;46.670;14.272;2023-03-14T05:17:50;8.85;;;3.55;;
38332;SDS011;25748;46.670;14.272;2023-03-14T05:20:16;17.67;;;5.63;;
38332;SDS011;25748;46.670;14.272;2023-03-14T05:22:42;16.10;;;6.55;;
38332;SDS011;25748;46.670;14.272;2023-03-14T05:25:07;9.82;;;4.50;;
38332;SDS011;25748;46.670;14.272;2023-03-14T05:27:34;10.98;;;3.42;;
38332;SDS011;25748;46.670;14.272;2023-03-14T05:30:00;9.68;;;2.22;;
38332;SDS011;25748;46.670;14.272;2023-03-14T05:32:28;5.68;;;2.45;;
38332;SDS011;25748;46.670;14.272;2023-03-14T05:34:53;9.98;;;2.13;;
38332;SDS011;25748;46.670;14.272;2023-03-14T05:37:23;7.68;;;2.38;;
38332;SDS011;25748;46.670;14.272;2023-03-14T05:39:48;7.22;;;2.47;;
38332;SDS011;25748;46.670;14.272;2023-03-14T05:42:14;6.63;;;2.90;;
38332;SDS011;25748;46.670;14.272;2023-03-14T05:44:40;4.60;;;2.22;;
38332;SDS011;25748;46.670;14.272;2023-03-14T05:47:05;5.25;;;2.63;;
38332;SDS011;25748;46.670;14.272;2023-03-14T05:49:31;7.28;;;2.95;;
38332;SDS011;25748;46.670;14.272;2023-03-14T05:51:57;7.63;;;2.60;;
38332;SDS011;25748;46.670;14.272;2023-03-14T05:54:23;6.05;;;2.35;;
38332;SDS011;25748;46.670;14.272;2023-03-14T05:56:48;7.10;;;2.67;;
38332;SDS011;25748;46.670;14.272;2023-03-14T05:59:14;4.57;;;1.90;;
38332;SDS011;25748;46.670;14.272;2023-03-14T06:01:40;12.93;;;2.40;;
38332;SDS011;25748;46.670;14.272;2023-03-14T06:04:05;5.07;;;2.22;;
38332;SDS011;25748;46.670;14.272;2023-03-14T06:06:31;8.63;;;2.55;;
38332;SDS011;25748;46.670;14.272;2023-03-14T06:08:57;8.00;;;2.47;;
38332;SDS011;25748;46.670;14.272;2023-03-14T06:11:24;8.15;;;2.05;;
38332;SDS011;25748;46.670;14.272;2023-03-14T06:45:58;3.38;;;2.00;;
38332;SDS011;25748;46.670;14.272;2023-03-14T06:48:25;7.18;;;1.60;;
38332;SDS011;25748;46.670;14.272;2023-03-14T06:50:53;4.28;;;1.40;;
38332;SDS011;25748;46.670;14.272;2023-03-14T06:53:19;2.60;;;1.13;;
38332;SDS011;25748;46.670;14.272;2023-03-14T06:55:45;3.15;;;0.80;;
38332;SDS011;25748;46.670;14.272;2023-03-14T06:58:14;3.30;;;1.08;;
38332;SDS011;25748;46.670;14.272;2023-03-14T07:00:40;3.95;;;1.40;;
38332;SDS011;25748;46.670;14.272;2023-03-14T07:03:08;0.77;;;0.40;;
38332;SDS011;25748;46.670;14.272;2023-03-14T07:05:37;1.13;;;0.35;;
38332;SDS011;25748;46.670;14.272;2023-03-14T07:08:05;0.32;;;0.17;;
38332;SDS011;25748;46.670;14.272;2023-03-14T07:10:31;2.13;;;0.17;;
38332;SDS011;25748;46.670;14.272;2023-03-14T07:12:57;0.20;;;0.17;;
38332;SDS011;25748;46.670;14.272;2023-03-14T07:15:25;2.35;;;0.28;;
38332;SDS011;25748;46.670;14.272;2023-03-14T07:17:51;0.50;;;0.15;;
38332;SDS011;25748;46.670;14.272;2023-03-14T07:20:20;1.05;;;0.30;;
38332;SDS011;25748;46.670;14.272;2023-03-14T07:22:47;4.28;;;0.20;;
38332;SDS011;25748;46.670;14.272;2023-03-14T07:25:16;1.58;;;0.20;;
38332;SDS011;25748;46.670;14.272;2023-03-14T07:27:42;0.52;;;0.10;;
38332;SDS011;25748;46.670;14.272;2023-03-14T07:30:10;0.35;;;0.10;;
38332;SDS011;25748;46.670;14.272;2023-03-14T07:32:36;0.30;;;0.10;;
38332;SDS011;25748;46.670;14.272;2023-03-14T07:35:02;4.70;;;0.28;;
38332;SDS011;25748;46.670;14.272;2023-03-14T07:37:28;0.93;;;0.20;;
38332;SDS011;25748;46.670;14.272;2023-03-14T07:39:54;1.88;;;0.10;;
38332;SDS011;25748;46.670;14.272;2023-03-14T07:42:20;1.65;;;0.10;;
38332;SDS011;25748;46.670;14.272;2023-03-14T07:44:48;1.85;;;0.30;;
38332;SDS011;25748;46.670;14.272;2023-03-14T07:47:14;0.60;;;0.30;;
38332;SDS011;25748;46.670;14.272;2023-03-14T07:49:39;2.08;;;0.28;;
38332;SDS011;25748;46.670;14.272;2023-03-14T07:52:05;0.10;;;0.10;;
38332;SDS011;25748;46.670;14.272;2023-03-14T07:54:31;1.13;;;0.17;;
38332;SDS011;25748;46.670;14.272;2023-03-14T07:56:57;0.55;;;0.20;;
38332;SDS011;25748;46.670;14.272;2023-03-14T07:59:25;2.08;;;0.10;;
38332;SDS011;25748;46.670;14.272;2023-03-14T08:01:52;0.20;;;0.20;;
38332;SDS011;25748;46.670;14.272;2023-03-14T08:04:17;3.83;;;0.10;;
38332;SDS011;25748;46.670;14.272;2023-03-14T08:06:43;7.35;;;0.10;;
38332;SDS011;25748;46.670;14.272;2023-03-14T08:09:15;1.63;;;0.17;;
38332;SDS011;25748;46.670;14.272;2023-03-14T08:11:40;0.82;;;0.10;;
38332;SDS011;25748;46.670;14.272;2023-03-14T08:14:06;1.10;;;0.30;;
38332;SDS011;25748;46.670;14.272;2023-03-14T08:16:32;0.08;;;0.00;;
38332;SDS011;25748;46.670;14.272;2023-03-14T08:18:58;1.77;;;0.20;;
38332;SDS011;25748;46.670;14.272;2023-03-14T08:21:23;0.20;;;0.15;;
38332;SDS011;25748;46.670;14.272;2023-03-14T08:23:49;0.82;;;0.20;;
38332;SDS011;25748;46.670;14.272;2023-03-14T08:26:16;0.10;;;0.00;;
38332;SDS011;25748;46.670;14.272;2023-03-14T08:28:45;0.77;;;0.20;;
38332;SDS011;25748;46.670;14.272;2023-03-14T08:31:14;0.55;;;0.17;;
38332;SDS011;25748;46.670;14.272;2023-03-14T08:33:40;0.47;;;0.10;;
38332;SDS011;25748;46.670;14.272;2023-03-14T08:36:05;0.93;;;0.10;;
38332;SDS011;25748;46.670;14.272;2023-03-14T08:38:32;3.08;;;0.10;;
38332;SDS011;25748;46.670;14.272;2023-03-14T08:40:58;0.35;;;0.10;;
38332;SDS011;25748;46.670;14.272;2023-03-14T08:43:25;0.08;;;0.00;;
38332;SDS011;25748;46.670;14.272;2023-03-14T08:45:51;0.20;;;0.00;;
38332;SDS011;25748;46.670;14.272;2023-03-14T08:48:17;0.43;;;0.10;;
38332;SDS011;25748;46.670;14.272;2023-03-14T08:50:44;0.28;;;0.03;;
38332;SDS011;25748;46.670;14.272;2023-03-14T08:53:10;2.70;;;0.20;;
38332;SDS011;25748;46.670;14.272;2023-03-14T08:55:36;0.77;;;0.13;;
38332;SDS011;25748;46.670;14.272;2023-03-14T08:58:02;0.32;;;0.10;;
38332;SDS011;25748;46.670;14.272;2023-03-14T09:00:29;0.40;;;0.10;;
38332;SDS011;25748;46.670;14.272;2023-03-14T09:02:57;0.20;;;0.10;;
38332;SDS011;25748;46.670;14.272;2023-03-14T09:05:23;0.77;;;0.13;;
38332;SDS011;25748;46.670;14.272;2023-03-14T09:07:49;2.28;;;0.20;;
38332;SDS011;25748;46.670;14.272;2023-03-14T09:10:15;0.30;;;0.10;;
38332;SDS011;25748;46.670;14.272;2023-03-14T09:12:41;0.40;;;0.20;;
38332;SDS011;25748;46.670;14.272;2023-03-14T09:15:07;0.70;;;0.10;;
38332;SDS011;25748;46.670;14.272;2023-03-14T09:17:34;2.88;;;0.30;;
38332;SDS011;25748;46.670;14.272;2023-03-14T09:20:00;0.20;;;0.10;;
38332;SDS011;25748;46.670;14.272;2023-03-14T09:22:26;1.00;;;0.15;;
38332;SDS011;25748;46.670;14.272;2023-03-14T09:24:52;1.23;;;0.30;;
38332;SDS011;25748;46.670;14.272;2023-03-14T09:27:18;3.83;;;0.25;;
38332;SDS011;25748;46.670;14.272;2023-03-14T09:29:44;1.85;;;0.38;;
38332;SDS011;25748;46.670;14.272;2023-03-14T09:32:09;1.33;;;0.50;;
38332;SDS011;25748;46.670;14.272;2023-03-14T09:34:35;3.33;;;0.60;;
38332;SDS011;25748;46.670;14.272;2023-03-14T09:37:01;2.20;;;0.40;;
38332;SDS011;25748;46.670;14.272;2023-03-14T09:39:27;1.58;;;0.60;;
38332;SDS011;25748;46.670;14.272;2023-03-14T09:41:53;2.28;;;0.43;;
38332;SDS011;25748;46.670;14.272;2023-03-14T09:44:24;3.17;;;0.70;;
38332;SDS011;25748;46.670;14.272;2023-03-14T09:46:54;4.97;;;0.40;;
38332;SDS011;25748;46.670;14.272;2023-03-14T09:49:24;2.83;;;0.35;;
38332;SDS011;25748;46.670;14.272;2023-03-14T09:51:56;1.38;;;0.20;;
38332;SDS011;25748;46.670;14.272;2023-03-14T09:54:32;1.17;;;0.10;;
38332;SDS011;25748;46.670;14.272;2023-03-14T09:57:14;0.60;;;0.15;;
38332;SDS011;25748;46.670;14.272;2023-03-14T09:59:46;0.95;;;0.20;;
38332;SDS011;25748;46.670;14.272;2023-03-14T10:02:21;1.98;;;0.60;;
38332;SDS011;25748;46.670;14.272;2023-03-14T10:04:49;1.45;;;0.30;;
38332;SDS011;25748;46.670;14.272;2023-03-14T10:07:18;2.47;;;0.30;;
38332;SDS011;25748;46.670;14.272;2023-03-14T10:09:52;1.23;;;0.32;;
38332;SDS011;25748;46.670;14.272;2023-03-14T10:12:18;1.70;;;0.32;;
38332;SDS011;25748;46.670;14.272;2023-03-14T10:14:51;1.88;;;0.32;;
38332;SDS011;25748;46.670;14.272;2023-03-14T10:17:19;0.10;;;0.10;;
38332;SDS011;25748;46.670;14.272;2023-03-14T10:22:19;0.20;;;0.10;;
38332;SDS011;25748;46.670;14.272;2023-03-14T10:24:53;0.80;;;0.00;;
38332;SDS011;25748;46.670;14.272;2023-03-14T10:27:26;2.45;;;0.20;;
38332;SDS011;25748;46.670;14.272;2023-03-14T10:29:57;2.65;;;0.10;;
38332;SDS011;25748;46.670;14.272;2023-03-14T10:32:34;0.90;;;0.10;;
38332;SDS011;25748;46.670;14.272;2023-03-14T10:37:48;0.22;;;0.10;;
38332;SDS011;25748;46.670;14.272;2023-03-14T10:40:32;0.32;;;0.10;;
38332;SDS011;25748;46.670;14.272;2023-03-14T10:43:03;1.02;;;0.10;;
38332;SDS011;25748;46.670;14.272;2023-03-14T10:45:42;0.43;;;0.03;;
38332;SDS011;25748;46.670;14.272;2023-03-14T10:48:32;0.43;;;0.10;;
38332;SDS011;25748;46.670;14.272;2023-03-14T10:53:49;0.50;;;0.10;;
38332;SDS011;25748;46.670;14.272;2023-03-14T10:56:35;0.95;;;0.20;;
38332;SDS011;25748;46.670;14.272;2023-03-14T10:59:02;0.55;;;0.20;;
38332;SDS011;25748;46.670;14.272;2023-03-14T11:12:36;0.30;;;0.03;;
38332;SDS011;25748;46.670;14.272;2023-03-14T11:44:27;0.10;;;0.00;;
38332;SDS011;25748;46.670;14.272;2023-03-14T11:47:18;1.35;;;0.25;;
38332;SDS011;25748;46.670;14.272;2023-03-14T11:49:45;0.00;;;0.00;;
38332;SDS011;25748;46.670;14.272;2023-03-14T11:52:30;0.20;;;0.00;;
38332;SDS011;25748;46.670;14.272;2023-03-14T11:55:02;2.40;;;0.00;;
38332;SDS011;25748;46.670;14.272;2023-03-14T11:57:42;0.63;;;0.10;;
38332;SDS011;25748;46.670;14.272;2023-03-14T12:00:19;0.20;;;0.08;;
38332;SDS011;25748;46.670;14.272;2023-03-14T12:05:51;0.20;;;0.00;;
38332;SDS011;25748;46.670;14.272;2023-03-14T12:10:38;0.38;;;0.10;;
38332;SDS011;25748;46.670;14.272;2023-03-14T12:13:08;0.00;;;0.00;;
38332;SDS011;25748;46.670;14.272;2023-03-14T12:15:38;0.10;;;0.00;;
38332;SDS011;25748;46.670;14.272;2023-03-14T12:18:28;0.00;;;0.00;;
38332;SDS011;25748;46.670;14.272;2023-03-14T12:21:04;0.45;;;0.10;;
38332;SDS011;25748;46.670;14.272;2023-03-14T12:23:37;3.40;;;0.00;;
38332;SDS011;25748;46.670;14.272;2023-03-14T12:26:18;0.00;;;0.00;;
38332;SDS011;25748;46.670;14.272;2023-03-14T12:29:09;0.13;;;0.00;;
38332;SDS011;25748;46.670;14.272;2023-03-14T12:31:42;0.47;;;0.10;;
38332;SDS011;25748;46.670;14.272;2023-03-14T12:50:21;0.28;;;0.00;;
38332;SDS011;25748;46.670;14.272;2023-03-14T12:53:05;0.00;;;0.00;;
38332;SDS011;25748;46.670;14.272;2023-03-14T12:56:15;0.20;;;0.00;;
38332;SDS011;25748;46.670;14.272;2023-03-14T13:01:44;0.13;;;0.10;;
38332;SDS011;25748;46.670;14.272;2023-03-14T13:04:13;0.00;;;0.00;;
38332;SDS011;25748;46.670;14.272;2023-03-14T13:06:52;0.25;;;0.00;;
38332;SDS011;25748;46.670;14.272;2023-03-14T13:11:55;0.35;;;0.10;;
38332;SDS011;25748;46.670;14.272;2023-03-14T13:14:27;0.35;;;0.00;;
38332;SDS011;25748;46.670;14.272;2023-03-14T13:16:54;3.03;;;0.00;;
38332;SDS011;25748;46.670;14.272;2023-03-14T13:19:21;0.20;;;0.00;;
38332;SDS011;25748;46.670;14.272;2023-03-14T13:21:50;0.00;;;0.00;;
38332;SDS011;25748;46.670;14.272;2023-03-14T13:24:25;0.10;;;0.00;;
38332;SDS011;25748;46.670;14.272;2023-03-14T13:26:52;0.00;;;0.00;;
38332;SDS011;25748;46.670;14.272;2023-03-14T13:29:23;0.05;;;0.00;;
38332;SDS011;25748;46.670;14.272;2023-03-14T13:31:54;0.90;;;0.00;;
38332;SDS011;25748;46.670;14.272;2023-03-14T13:34:28;0.10;;;0.00;;
38332;SDS011;25748;46.670;14.272;2023-03-14T13:37:13;0.50;;;0.10;;
38332;SDS011;25748;46.670;14.272;2023-03-14T13:42:21;0.00;;;0.00;;
38332;SDS011;25748;46.670;14.272;2023-03-14T13:44:51;0.10;;;0.00;;
38332;SDS011;25748;46.670;14.272;2023-03-14T13:47:22;0.75;;;0.20;;
38332;SDS011;25748;46.670;14.272;2023-03-14T13:49:49;0.47;;;0.00;;
38332;SDS011;25748;46.670;14.272;2023-03-14T13:52:35;0.00;;;0.00;;
38332;SDS011;25748;46.670;14.272;2023-03-14T13:55:03;0.00;;;0.00;;
38332;SDS011;25748;46.670;14.272;2023-03-14T13:57:51;1.45;;;0.10;;
38332;SDS011;25748;46.670;14.272;2023-03-14T14:00:20;0.10;;;0.00;;
38332;SDS011;25748;46.670;14.272;2023-03-14T14:02:54;0.10;;;0.00;;
38332;SDS011;25748;46.670;14.272;2023-03-14T14:05:22;0.00;;;0.00;;
38332;SDS011;25748;46.670;14.272;2023-03-14T14:07:50;0.22;;;0.03;;
38332;SDS011;25748;46.670;14.272;2023-03-14T14:10:17;0.20;;;0.00;;
38332;SDS011;25748;46.670;14.272;2023-03-14T14:12:51;0.03;;;0.00;;
38332;SDS011;25748;46.670;14.272;2023-03-14T14:15:26;1.42;;;0.10;;
38332;SDS011;25748;46.670;14.272;2023-03-14T14:18:05;0.25;;;0.00;;
38332;SDS011;25748;46.670;14.272;2023-03-14T14:20:38;0.30;;;0.08;;
38332;SDS011;25748;46.670;14.272;2023-03-14T14:23:08;0.30;;;0.00;;
38332;SDS011;25748;46.670;14.272;2023-03-14T14:25:36;0.52;;;0.08;;
38332;SDS011;25748;46.670;14.272;2023-03-14T14:34:01;0.63;;;0.00;;
38332;SDS011;25748;46.670;14.272;2023-03-14T14:39:00;0.73;;;0.00;;
38332;SDS011;25748;46.670;14.272;2023-03-14T14:41:45;0.05;;;0.00;;
38332;SDS011;25748;46.670;14.272;2023-03-14T14:49:18;0.20;;;0.00;;
38332;SDS011;25748;46.670;14.272;2023-03-14T14:51:49;1.95;;;0.20;;
38332;SDS011;25748;46.670;14.272;2023-03-14T14:54:17;0.28;;;0.20;;
38332;SDS011;25748;46.670;14.272;2023-03-14T14:56:54;0.10;;;0.10;;
38332;SDS011;25748;46.670;14.272;2023-03-14T15:00:00;0.15;;;0.00;;
38332;SDS011;25748;46.670;14.272;2023-03-14T15:05:05;2.20;;;0.13;;
38332;SDS011;25748;46.670;14.272;2023-03-14T15:10:02;0.10;;;0.00;;
38332;SDS011;25748;46.670;14.272;2023-03-14T15:12:29;0.20;;;0.10;;
38332;SDS011;25748;46.670;14.272;2023-03-14T15:14:55;0.98;;;0.10;;
38332;SDS011;25748;46.670;14.272;2023-03-14T15:17:22;0.55;;;0.15;;
38332;SDS011;25748;46.670;14.272;2023-03-14T15:19:49;0.40;;;0.10;;
38332;SDS011;25748;46.670;14.272;2023-03-14T15:22:15;1.13;;;0.10;;
38332;SDS011;25748;46.670;14.272;2023-03-14T15:24:41;0.47;;;0.10;;
38332;SDS011;25748;46.670;14.272;2023-03-14T15:27:12;0.40;;;0.00;;
38332;SDS011;25748;46.670;14.272;2023-03-14T15:29:39;0.22;;;0.15;;
38332;SDS011;25748;46.670;14.272;2023-03-14T15:32:05;0.70;;;0.17;;
38332;SDS011;25748;46.670;14.272;2023-03-14T15:34:31;2.30;;;0.20;;
38332;SDS011;25748;46.670;14.272;2023-03-14T15:36:57;1.13;;;0.43;;
38332;SDS011;25748;46.670;14.272;2023-03-14T15:39:24;0.85;;;0.20;;
38332;SDS011;25748;46.670;14.272;2023-03-14T15:41:50;0.60;;;0.20;;
38332;SDS011;25748;46.670;14.272;2023-03-14T15:44:15;0.63;;;0.22;;
38332;SDS011;25748;46.670;14.272;2023-03-14T15:46:42;4.00;;;0.30;;
38332;SDS011;25748;46.670;14.272;2023-03-14T15:49:08;1.48;;;0.85;;
38332;SDS011;25748;46.670;14.272;2023-03-14T15:51:34;0.90;;;0.20;;
38332;SDS011;25748;46.670;14.272;2023-03-14T15:53:59;0.80;;;0.43;;
38332;SDS011;25748;46.670;14.272;2023-03-14T15:56:25;5.65;;;0.90;;
38332;SDS011;25748;46.670;14.272;2023-03-14T15:58:55;2.92;;;0.20;;
38332;SDS011;25748;46.670;14.272;2023-03-14T16:01:21;1.65;;;0.30;;
38332;SDS011;25748;46.670;14.272;2023-03-14T16:03:47;1.08;;;0.28;;
38332;SDS011;25748;46.670;14.272;2023-03-14T16:06:14;1.80;;;0.30;;
38332;SDS011;25748;46.670;14.272;2023-03-14T16:08:40;0.50;;;0.20;;
38332;SDS011;25748;46.670;14.272;2023-03-14T16:11:10;0.20;;;0.10;;
38332;SDS011;25748;46.670;14.272;2023-03-14T16:13:37;3.47;;;0.20;;
38332;SDS011;25748;46.670;14.272;2023-03-14T16:16:04;1.67;;;0.20;;
38332;SDS011;25748;46.670;14.272;2023-03-14T16:18:31;0.82;;;0.10;;
38332;SDS011;25748;46.670;14.272;2023-03-14T16:20:59;0.40;;;0.20;;
38332;SDS011;25748;46.670;14.272;2023-03-14T16:23:27;0.38;;;0.17;;
38332;SDS011;25748;46.670;14.272;2023-03-14T16:25:53;0.30;;;0.15;;
38332;SDS011;25748;46.670;14.272;2023-03-14T16:28:20;0.32;;;0.10;;
38332;SDS011;25748;46.670;14.272;2023-03-14T16:30:46;0.55;;;0.40;;
38332;SDS011;25748;46.670;14.272;2023-03-14T16:33:12;1.85;;;0.47;;
38332;SDS011;25748;46.670;14.272;2023-03-14T16:35:38;1.48;;;0.40;;
38332;SDS011;25748;46.670;14.272;2023-03-14T16:38:04;0.75;;;0.10;;
38332;SDS011;25748;46.670;14.272;2023-03-14T16:40:30;0.15;;;0.08;;
38332;SDS011;25748;46.670;14.272;2023-03-14T16:42:56;1.55;;;0.25;;
38332;SDS011;25748;46.670;14.272;2023-03-14T16:45:22;2.63;;;0.20;;
38332;SDS011;25748;46.670;14.272;2023-03-14T16:47:48;5.45;;;0.75;;
38332;SDS011;25748;46.670;14.272;2023-03-14T16:50:14;3.38;;;0.20;;
38332;SDS011;25748;46.670;14.272;2023-03-14T16:52:40;0.40;;;0.22;;
38332;SDS011;25748;46.670;14.272;2023-03-14T16:55:05;0.30;;;0.10;;
38332;SDS011;25748;46.670;14.272;2023-03-14T16:57:32;0.25;;;0.13;;
38332;SDS011;25748;46.670;14.272;2023-03-14T16:59:58;1.85;;;0.20;;